sensor_id;sensor_type;location;lat;lon;timestamp;temperature;humidity
12223;DHT22;6174;49.058;8.524;2023-01-19T05:01:53;1.60;99.90
12223;DHT22;6174;49.058;8.524;2023-01-19T05:04:21;1.60;99.90
12223;DHT22;6174;49.058;8.524;2023-01-19T05:06:48;1.70;99.90
12223;DHT22;6174;49.058;8.524;2023-01-19T05:09:16;1.60;99.90
12223;DHT22;6174;49.058;8.524;2023-01-19T05:11:42;1.60;99.90
12223;DHT22;6174;49.058;8.524;2023-01-19T05:14:09;1.50;99.90
12223;DHT22;6174;49.058;8.524;2023-01-19T05:16:36;1.50;99.90
12223;DHT22;6174;49.058;8.524;2023-01-19T05:19:04;1.50;99.90
12223;DHT22;6174;49.058;8.524;2023-01-19T05:21:31;1.50;99.90
12223;DHT22;6174;49.058;8.524;2023-01-19T05:23:57;1.50;99.90
12223;DHT22;6174;49.058;8.524;2023-01-19T05:26:24;1.50;99.90
12223;DHT22;6174;49.058;8.524;2023-01-19T05:28:51;1.60;99.90
12223;DHT22;6174;49.058;8.524;2023-01-19T05:31:18;1.60;99.90
12223;DHT22;6174;49.058;8.524;2023-01-19T05:33:44;1.50;99.90
12223;DHT22;6174;49.058;8.524;2023-01-19T05:36:13;1.60;99.90
12223;DHT22;6174;49.058;8.524;2023-01-19T05:38:40;1.50;99.90
12223;DHT22;6174;49.058;8.524;2023-01-19T05:41:07;1.60;99.90
12223;DHT22;6174;49.058;8.524;2023-01-19T05:43:33;1.60;99.90
12223;DHT22;6174;49.058;8.524;2023-01-19T05:46:02;1.50;99.90
12223;DHT22;6174;49.058;8.524;2023-01-19T05:48:29;1.50;99.90
12223;DHT22;6174;49.058;8.524;2023-01-19T05:50:57;1.60;99.90
12223;DHT22;6174;49.058;8.524;2023-01-19T05:53:25;1.50;99.90
12223;DHT22;6174;49.058;8.524;2023-01-19T05:55:51;1.50;99.90
12223;DHT22;6174;49.058;8.524;2023-01-19T05:58:18;1.50;99.90
12223;DHT22;6174;49.058;8.524;2023-01-19T06:00:45;1.50;99.90
12223;DHT22;6174;49.058;8.524;2023-01-19T06:03:12;1.50;99.90
12223;DHT22;6174;49.058;8.524;2023-01-19T06:05:38;1.50;99.90
12223;DHT22;6174;49.058;8.524;2023-01-19T06:08:05;1.50;99.90
12223;DHT22;6174;49.058;8.524;2023-01-19T06:10:33;1.50;99.90
12223;DHT22;6174;49.058;8.524;2023-01-19T06:13:00;1.50;99.90
12223;DHT22;6174;49.058;8.524;2023-01-19T06:15:27;1.50;99.90
12223;DHT22;6174;49.058;8.524;2023-01-19T06:17:54;1.40;99.90
12223;DHT22;6174;49.058;8.524;2023-01-19T06:20:20;1.40;99.90
12223;DHT22;6174;49.058;8.524;2023-01-19T06:22:47;1.40;99.90
12223;DHT22;6174;49.058;8.524;2023-01-19T06:25:14;1.40;99.90
12223;DHT22;6174;49.058;8.524;2023-01-19T06:27:43;1.40;99.90
12223;DHT22;6174;49.058;8.524;2023-01-19T06:30:11;1.40;99.90
12223;DHT22;6174;49.058;8.524;2023-01-19T06:32:38;1.40;99.90
12223;DHT22;6174;49.058;8.524;2023-01-19T06:35:05;1.40;99.90
12223;DHT22;6174;49.058;8.524;2023-01-19T06:37:32;1.50;99.90
12223;DHT22;6174;49.058;8.524;2023-01-19T06:39:59;1.50;99.90
12223;DHT22;6174;49.058;8.524;2023-01-19T06:42:25;1.50;99.90
12223;DHT22;6174;49.058;8.524;2023-01-19T06:44:54;1.50;99.90
12223;DHT22;6174;49.058;8.524;2023-01-19T06:47:20;1.50;99.90
12223;DHT22;6174;49.058;8.524;2023-01-19T06:49:47;1.50;99.90
12223;DHT22;6174;49.058;8.524;2023-01-19T06:52:14;1.50;99.90
12223;DHT22;6174;49.058;8.524;2023-01-19T06:54:42;1.50;99.90
12223;DHT22;6174;49.058;8.524;2023-01-19T06:57:09;1.50;99.90
12223;DHT22;6174;49.058;8.524;2023-01-19T06:59:36;1.50;99.90
12223;DHT22;6174;49.058;8.524;2023-01-19T07:02:04;1.50;99.90
12223;DHT22;6174;49.058;8.524;2023-01-19T07:04:31;1.60;99.90
12223;DHT22;6174;49.058;8.524;2023-01-19T07:06:58;1.60;99.90
12223;DHT22;6174;49.058;8.524;2023-01-19T07:09:25;1.60;99.90
12223;DHT22;6174;49.058;8.524;2023-01-19T07:11:53;1.60;99.90
12223;DHT22;6174;49.058;8.524;2023-01-19T07:14:19;1.60;99.90
12223;DHT22;6174;49.058;8.524;2023-01-19T07:16:46;1.60;99.90
12223;DHT22;6174;49.058;8.524;2023-01-19T07:19:14;1.60;99.90
12223;DHT22;6174;49.058;8.524;2023-01-19T07:21:41;1.60;99.90
12223;DHT22;6174;49.058;8.524;2023-01-19T07:24:08;1.60;99.90
12223;DHT22;6174;49.058;8.524;2023-01-19T07:26:34;1.60;99.90
12223;DHT22;6174;49.058;8.524;2023-01-19T07:29:01;1.70;99.90
12223;DHT22;6174;49.058;8.524;2023-01-19T07:31:28;1.70;99.90
12223;DHT22;6174;49.058;8.524;2023-01-19T07:33:54;1.70;99.90
12223;DHT22;6174;49.058;8.524;2023-01-19T07:36:23;1.70;99.90
12223;DHT22;6174;49.058;8.524;2023-01-19T07:38:50;1.80;99.90
12223;DHT22;6174;49.058;8.524;2023-01-19T07:41:17;1.80;99.90
12223;DHT22;6174;49.058;8.524;2023-01-19T07:43:43;1.80;99.90
12223;DHT22;6174;49.058;8.524;2023-01-19T07:46:10;1.80;99.90
12223;DHT22;6174;49.058;8.524;2023-01-19T07:48:37;1.80;99.90
12223;DHT22;6174;49.058;8.524;2023-01-19T07:51:04;1.80;99.90
12223;DHT22;6174;49.058;8.524;2023-01-19T07:53:34;1.80;99.90
12223;DHT22;6174;49.058;8.524;2023-01-19T07:56:01;1.80;99.90
12223;DHT22;6174;49.058;8.524;2023-01-19T07:58:27;1.80;99.90
12223;DHT22;6174;49.058;8.524;2023-01-19T08:00:54;1.80;99.90
12223;DHT22;6174;49.058;8.524;2023-01-19T08:03:21;1.80;99.90
12223;DHT22;6174;49.058;8.524;2023-01-19T08:05:49;1.70;99.90
12223;DHT22;6174;49.058;8.524;2023-01-19T08:08:17;1.80;99.90
12223;DHT22;6174;49.058;8.524;2023-01-19T08:10:48;1.90;99.90
12223;DHT22;6174;49.058;8.524;2023-01-19T08:13:15;1.90;99.90
12223;DHT22;6174;49.058;8.524;2023-01-19T08:15:43;1.90;99.90
12223;DHT22;6174;49.058;8.524;2023-01-19T08:18:09;1.90;99.90
12223;DHT22;6174;49.058;8.524;2023-01-19T08:20:36;2.00;99.90
12223;DHT22;6174;49.058;8.524;2023-01-19T08:23:03;1.90;99.90
12223;DHT22;6174;49.058;8.524;2023-01-19T08:25:34;2.00;99.90
12223;DHT22;6174;49.058;8.524;2023-01-19T08:28:04;2.10;99.90
12223;DHT22;6174;49.058;8.524;2023-01-19T08:30:32;2.10;99.90
12223;DHT22;6174;49.058;8.524;2023-01-19T08:32:59;2.10;99.90
12223;DHT22;6174;49.058;8.524;2023-01-19T08:35:29;2.20;99.90
12223;DHT22;6174;49.058;8.524;2023-01-19T08:37:56;2.20;99.90
12223;DHT22;6174;49.058;8.524;2023-01-19T08:40:26;2.20;99.90
12223;DHT22;6174;49.058;8.524;2023-01-19T08:42:56;2.20;99.90
12223;DHT22;6174;49.058;8.524;2023-01-19T08:45:26;2.30;99.90
12223;DHT22;6174;49.058;8.524;2023-01-19T08:47:54;2.30;99.90
12223;DHT22;6174;49.058;8.524;2023-01-19T08:50:21;2.40;99.90
12223;DHT22;6174;49.058;8.524;2023-01-19T08:52:48;2.30;99.90
12223;DHT22;6174;49.058;8.524;2023-01-19T08:55:15;2.30;99.90
12223;DHT22;6174;49.058;8.524;2023-01-19T08:57:42;2.40;99.90
12223;DHT22;6174;49.058;8.524;2023-01-19T09:00:10;2.40;99.90
12223;DHT22;6174;49.058;8.524;2023-01-19T09:02:38;2.40;99.90
12223;DHT22;6174;49.058;8.524;2023-01-19T09:05:05;2.40;99.90
12223;DHT22;6174;49.058;8.524;2023-01-19T09:07:32;2.40;99.90
12223;DHT22;6174;49.058;8.524;2023-01-19T09:09:59;2.40;99.90
12223;DHT22;6174;49.058;8.524;2023-01-19T09:12:26;2.50;99.90
12223;DHT22;6174;49.058;8.524;2023-01-19T09:14:52;2.50;99.90
12223;DHT22;6174;49.058;8.524;2023-01-19T09:17:19;2.50;99.90
12223;DHT22;6174;49.058;8.524;2023-01-19T09:19:47;2.50;99.90
12223;DHT22;6174;49.058;8.524;2023-01-19T09:22:14;2.60;99.90
12223;DHT22;6174;49.058;8.524;2023-01-19T09:24:41;2.60;99.90
12223;DHT22;6174;49.058;8.524;2023-01-19T09:27:07;2.60;99.90
12223;DHT22;6174;49.058;8.524;2023-01-19T09:29:34;2.60;99.90
12223;DHT22;6174;49.058;8.524;2023-01-19T09:32:01;2.60;99.90
12223;DHT22;6174;49.058;8.524;2023-01-19T09:34:28;2.70;99.90
12223;DHT22;6174;49.058;8.524;2023-01-19T09:36:57;2.70;99.90
12223;DHT22;6174;49.058;8.524;2023-01-19T09:39:23;2.70;99.90
12223;DHT22;6174;49.058;8.524;2023-01-19T09:41:56;2.70;99.90
12223;DHT22;6174;49.058;8.524;2023-01-19T09:44:29;2.70;99.90
12223;DHT22;6174;49.058;8.524;2023-01-19T09:46:57;2.70;99.90
12223;DHT22;6174;49.058;8.524;2023-01-19T09:49:29;2.60;99.90
12223;DHT22;6174;49.058;8.524;2023-01-19T09:51:58;2.70;99.90
12223;DHT22;6174;49.058;8.524;2023-01-19T09:54:30;2.60;99.90
12223;DHT22;6174;49.058;8.524;2023-01-19T09:57:00;2.60;99.90
12223;DHT22;6174;49.058;8.524;2023-01-19T09:59:28;2.70;99.90
12223;DHT22;6174;49.058;8.524;2023-01-19T10:02:11;2.70;99.90
12223;DHT22;6174;49.058;8.524;2023-01-19T10:04:40;2.70;99.90
12223;DHT22;6174;49.058;8.524;2023-01-19T10:07:13;2.70;99.90
12223;DHT22;6174;49.058;8.524;2023-01-19T10:09:54;2.70;99.90
12223;DHT22;6174;49.058;8.524;2023-01-19T10:12:31;2.60;99.90
12223;DHT22;6174;49.058;8.524;2023-01-19T10:15:04;2.70;99.90
12223;DHT22;6174;49.058;8.524;2023-01-19T10:17:44;2.70;99.90
12223;DHT22;6174;49.058;8.524;2023-01-19T10:20:17;2.60;99.90
12223;DHT22;6174;49.058;8.524;2023-01-19T10:22:48;2.60;99.90
12223;DHT22;6174;49.058;8.524;2023-01-19T10:25:18;2.60;99.90
12223;DHT22;6174;49.058;8.524;2023-01-19T10:27:45;2.60;99.90
12223;DHT22;6174;49.058;8.524;2023-01-19T10:30:16;2.60;99.90
12223;DHT22;6174;49.058;8.524;2023-01-19T10:32:45;2.60;99.90
12223;DHT22;6174;49.058;8.524;2023-01-19T10:35:15;2.60;99.90
12223;DHT22;6174;49.058;8.524;2023-01-19T10:37:47;2.60;99.90
12223;DHT22;6174;49.058;8.524;2023-01-19T10:40:21;2.50;99.90
12223;DHT22;6174;49.058;8.524;2023-01-19T10:42:52;2.50;99.90
12223;DHT22;6174;49.058;8.524;2023-01-19T10:45:20;2.60;99.90
12223;DHT22;6174;49.058;8.524;2023-01-19T10:47:49;2.50;99.90
12223;DHT22;6174;49.058;8.524;2023-01-19T10:50:27;2.50;99.90
12223;DHT22;6174;49.058;8.524;2023-01-19T10:52:58;2.50;99.90
12223;DHT22;6174;49.058;8.524;2023-01-19T10:55:27;2.50;99.90
12223;DHT22;6174;49.058;8.524;2023-01-19T10:57:55;2.50;99.90
12223;DHT22;6174;49.058;8.524;2023-01-19T11:00:33;2.40;99.90
12223;DHT22;6174;49.058;8.524;2023-01-19T11:03:01;2.50;99.90
12223;DHT22;6174;49.058;8.524;2023-01-19T11:05:30;2.50;99.90
12223;DHT22;6174;49.058;8.524;2023-01-19T11:07:59;2.50;99.90
12223;DHT22;6174;49.058;8.524;2023-01-19T11:10:26;2.50;99.90
12223;DHT22;6174;49.058;8.524;2023-01-19T11:12:58;2.50;99.90
12223;DHT22;6174;49.058;8.524;2023-01-19T11:15:29;2.60;99.90
12223;DHT22;6174;49.058;8.524;2023-01-19T11:17:57;2.60;99.90
12223;DHT22;6174;49.058;8.524;2023-01-19T11:20:26;2.60;99.90
12223;DHT22;6174;49.058;8.524;2023-01-19T11:23:06;2.60;99.90
12223;DHT22;6174;49.058;8.524;2023-01-19T11:25:34;2.60;99.90
12223;DHT22;6174;49.058;8.524;2023-01-19T11:28:02;2.60;99.90
12223;DHT22;6174;49.058;8.524;2023-01-19T11:30:29;2.70;99.90
12223;DHT22;6174;49.058;8.524;2023-01-19T11:32:56;2.60;99.90
12223;DHT22;6174;49.058;8.524;2023-01-19T11:35:33;2.60;99.90
12223;DHT22;6174;49.058;8.524;2023-01-19T11:38:14;2.70;99.90
12223;DHT22;6174;49.058;8.524;2023-01-19T11:40:49;2.70;99.90
12223;DHT22;6174;49.058;8.524;2023-01-19T11:43:16;2.80;99.90
12223;DHT22;6174;49.058;8.524;2023-01-19T11:45:44;2.80;99.90
12223;DHT22;6174;49.058;8.524;2023-01-19T11:48:18;2.70;99.90
12223;DHT22;6174;49.058;8.524;2023-01-19T11:50:48;2.80;99.90
12223;DHT22;6174;49.058;8.524;2023-01-19T11:53:20;2.90;99.90
12223;DHT22;6174;49.058;8.524;2023-01-19T11:55:52;2.90;99.90
12223;DHT22;6174;49.058;8.524;2023-01-19T11:58:20;3.00;99.90
12223;DHT22;6174;49.058;8.524;2023-01-19T12:00:50;3.00;99.90
12223;DHT22;6174;49.058;8.524;2023-01-19T12:03:22;3.10;99.90
12223;DHT22;6174;49.058;8.524;2023-01-19T12:05:51;3.10;99.90
12223;DHT22;6174;49.058;8.524;2023-01-19T12:08:24;3.00;99.90
12223;DHT22;6174;49.058;8.524;2023-01-19T12:10:56;3.10;99.90
12223;DHT22;6174;49.058;8.524;2023-01-19T12:13:25;3.10;99.90
12223;DHT22;6174;49.058;8.524;2023-01-19T12:15:55;3.10;99.90
12223;DHT22;6174;49.058;8.524;2023-01-19T12:18:29;3.10;99.90
12223;DHT22;6174;49.058;8.524;2023-01-19T12:21:00;3.10;99.90
12223;DHT22;6174;49.058;8.524;2023-01-19T12:23:43;3.10;99.90
12223;DHT22;6174;49.058;8.524;2023-01-19T12:26:29;3.10;99.90
12223;DHT22;6174;49.058;8.524;2023-01-19T12:29:02;3.10;99.90
12223;DHT22;6174;49.058;8.524;2023-01-19T12:31:30;3.10;99.90
12223;DHT22;6174;49.058;8.524;2023-01-19T12:34:27;3.10;99.90
12223;DHT22;6174;49.058;8.524;2023-01-19T12:37:00;3.10;99.90
12223;DHT22;6174;49.058;8.524;2023-01-19T12:39:30;3.00;99.90
12223;DHT22;6174;49.058;8.524;2023-01-19T12:42:06;3.00;99.90
12223;DHT22;6174;49.058;8.524;2023-01-19T12:44:37;3.00;99.90
12223;DHT22;6174;49.058;8.524;2023-01-19T12:47:18;3.10;99.90
12223;DHT22;6174;49.058;8.524;2023-01-19T12:49:48;3.10;99.90
12223;DHT22;6174;49.058;8.524;2023-01-19T12:52:20;3.10;99.90
12223;DHT22;6174;49.058;8.524;2023-01-19T12:54:54;3.00;99.90
12223;DHT22;6174;49.058;8.524;2023-01-19T12:57:25;3.10;99.90
12223;DHT22;6174;49.058;8.524;2023-01-19T12:59:58;3.10;99.90
12223;DHT22;6174;49.058;8.524;2023-01-19T13:02:49;3.10;99.90
12223;DHT22;6174;49.058;8.524;2023-01-19T13:08:26;3.20;99.90
12223;DHT22;6174;49.058;8.524;2023-01-19T13:11:20;3.10;99.90
12223;DHT22;6174;49.058;8.524;2023-01-19T13:20:24;3.20;99.90
12223;DHT22;6174;49.058;8.524;2023-01-19T13:23:17;3.20;99.90
12223;DHT22;6174;49.058;8.524;2023-01-19T13:25:51;3.30;99.90
12223;DHT22;6174;49.058;8.524;2023-01-19T13:28:27;3.30;99.90
12223;DHT22;6174;49.058;8.524;2023-01-19T13:30:57;3.30;99.90
12223;DHT22;6174;49.058;8.524;2023-01-19T13:33:32;3.40;99.90
12223;DHT22;6174;49.058;8.524;2023-01-19T13:36:00;3.30;99.90
12223;DHT22;6174;49.058;8.524;2023-01-19T13:38:28;3.30;99.90
12223;DHT22;6174;49.058;8.524;2023-01-19T13:40:58;3.30;99.90
12223;DHT22;6174;49.058;8.524;2023-01-19T13:43:33;3.30;99.90
12223;DHT22;6174;49.058;8.524;2023-01-19T13:46:02;3.30;99.90
12223;DHT22;6174;49.058;8.524;2023-01-19T13:48:30;3.30;99.90
12223;DHT22;6174;49.058;8.524;2023-01-19T13:51:00;3.30;99.90
12223;DHT22;6174;49.058;8.524;2023-01-19T13:53:28;3.30;99.90
12223;DHT22;6174;49.058;8.524;2023-01-19T13:58:59;3.20;99.90
12223;DHT22;6174;49.058;8.524;2023-01-19T14:01:26;3.30;99.90
12223;DHT22;6174;49.058;8.524;2023-01-19T14:03:54;3.30;99.90
12223;DHT22;6174;49.058;8.524;2023-01-19T14:06:32;3.30;99.90
12223;DHT22;6174;49.058;8.524;2023-01-19T14:09:14;3.30;99.90
12223;DHT22;6174;49.058;8.524;2023-01-19T14:11:45;3.30;99.90
12223;DHT22;6174;49.058;8.524;2023-01-19T14:14:26;3.30;99.90
12223;DHT22;6174;49.058;8.524;2023-01-19T14:16:56;3.30;99.90
12223;DHT22;6174;49.058;8.524;2023-01-19T14:19:24;3.30;99.90
12223;DHT22;6174;49.058;8.524;2023-01-19T14:21:59;3.30;99.90
12223;DHT22;6174;49.058;8.524;2023-01-19T14:24:26;3.30;99.90
12223;DHT22;6174;49.058;8.524;2023-01-19T14:27:17;3.30;99.90
12223;DHT22;6174;49.058;8.524;2023-01-19T14:29:47;3.40;99.90
12223;DHT22;6174;49.058;8.524;2023-01-19T14:32:16;3.40;99.90
12223;DHT22;6174;49.058;8.524;2023-01-19T14:34:45;3.50;99.90
12223;DHT22;6174;49.058;8.524;2023-01-19T14:37:21;3.50;99.90
12223;DHT22;6174;49.058;8.524;2023-01-19T14:39:50;3.60;99.90
12223;DHT22;6174;49.058;8.524;2023-01-19T14:42:21;3.70;99.90
12223;DHT22;6174;49.058;8.524;2023-01-19T14:44:51;3.70;99.90
12223;DHT22;6174;49.058;8.524;2023-01-19T14:47:31;3.70;99.90
12223;DHT22;6174;49.058;8.524;2023-01-19T14:50:04;3.70;99.90
12223;DHT22;6174;49.058;8.524;2023-01-19T14:52:36;3.70;99.90
12223;DHT22;6174;49.058;8.524;2023-01-19T14:55:04;3.70;99.90
12223;DHT22;6174;49.058;8.524;2023-01-19T14:57:33;3.80;99.90
12223;DHT22;6174;49.058;8.524;2023-01-19T15:00:10;3.80;99.90
12223;DHT22;6174;49.058;8.524;2023-01-19T15:02:36;3.90;99.90
12223;DHT22;6174;49.058;8.524;2023-01-19T15:05:04;3.90;99.90
12223;DHT22;6174;49.058;8.524;2023-01-19T15:07:33;3.90;99.90
12223;DHT22;6174;49.058;8.524;2023-01-19T15:09:59;3.80;99.90
12223;DHT22;6174;49.058;8.524;2023-01-19T15:12:26;3.90;99.90
12223;DHT22;6174;49.058;8.524;2023-01-19T15:14:54;3.90;99.90
12223;DHT22;6174;49.058;8.524;2023-01-19T15:17:22;3.80;99.90
12223;DHT22;6174;49.058;8.524;2023-01-19T15:19:51;3.70;99.90
12223;DHT22;6174;49.058;8.524;2023-01-19T15:22:18;3.70;99.90
12223;DHT22;6174;49.058;8.524;2023-01-19T15:24:46;3.70;99.90
12223;DHT22;6174;49.058;8.524;2023-01-19T15:27:13;3.80;99.90
12223;DHT22;6174;49.058;8.524;2023-01-19T15:29:40;3.70;99.90
12223;DHT22;6174;49.058;8.524;2023-01-19T15:32:10;3.70;99.90
12223;DHT22;6174;49.058;8.524;2023-01-19T15:34:39;3.70;99.90
12223;DHT22;6174;49.058;8.524;2023-01-19T15:37:06;3.70;99.90
12223;DHT22;6174;49.058;8.524;2023-01-19T15:39:33;3.70;99.90
12223;DHT22;6174;49.058;8.524;2023-01-19T15:42:00;3.60;99.90
12223;DHT22;6174;49.058;8.524;2023-01-19T15:44:26;3.60;99.90
12223;DHT22;6174;49.058;8.524;2023-01-19T15:46:53;3.60;99.90
12223;DHT22;6174;49.058;8.524;2023-01-19T15:49:21;3.50;99.90
12223;DHT22;6174;49.058;8.524;2023-01-19T15:51:49;3.50;99.90
12223;DHT22;6174;49.058;8.524;2023-01-19T15:54:17;3.40;99.90
12223;DHT22;6174;49.058;8.524;2023-01-19T15:56:44;3.40;99.90
12223;DHT22;6174;49.058;8.524;2023-01-19T15:59:11;3.30;99.90
12223;DHT22;6174;49.058;8.524;2023-01-19T16:01:39;3.40;99.90
12223;DHT22;6174;49.058;8.524;2023-01-19T16:04:07;3.30;99.90
12223;DHT22;6174;49.058;8.524;2023-01-19T16:06:35;3.20;99.90
12223;DHT22;6174;49.058;8.524;2023-01-19T16:09:04;3.20;99.90
12223;DHT22;6174;49.058;8.524;2023-01-19T16:11:33;3.20;99.90
12223;DHT22;6174;49.058;8.524;2023-01-19T16:14:00;3.10;99.90
12223;DHT22;6174;49.058;8.524;2023-01-19T16:16:27;3.10;99.90
12223;DHT22;6174;49.058;8.524;2023-01-19T16:18:54;3.10;99.90
12223;DHT22;6174;49.058;8.524;2023-01-19T16:21:21;3.00;99.90
12223;DHT22;6174;49.058;8.524;2023-01-19T16:23:48;3.00;99.90
12223;DHT22;6174;49.058;8.524;2023-01-19T16:26:28;3.00;99.90
12223;DHT22;6174;49.058;8.524;2023-01-19T16:28:56;2.90;99.90
12223;DHT22;6174;49.058;8.524;2023-01-19T16:31:24;2.90;99.90
12223;DHT22;6174;49.058;8.524;2023-01-19T16:33:50;2.80;99.90
12223;DHT22;6174;49.058;8.524;2023-01-19T16:36:23;2.80;99.90
12223;DHT22;6174;49.058;8.524;2023-01-19T16:38:50;2.70;99.90
12223;DHT22;6174;49.058;8.524;2023-01-19T16:41:17;2.70;99.90
12223;DHT22;6174;49.058;8.524;2023-01-19T16:43:50;2.70;99.90
12223;DHT22;6174;49.058;8.524;2023-01-19T16:46:20;2.70;99.90
12223;DHT22;6174;49.058;8.524;2023-01-19T16:48:47;2.70;99.90
12223;DHT22;6174;49.058;8.524;2023-01-19T16:51:14;2.60;99.90
12223;DHT22;6174;49.058;8.524;2023-01-19T16:53:40;2.60;99.90
12223;DHT22;6174;49.058;8.524;2023-01-19T16:56:09;2.60;99.90
12223;DHT22;6174;49.058;8.524;2023-01-19T16:58:36;2.60;99.90
12223;DHT22;6174;49.058;8.524;2023-01-19T17:01:09;2.50;99.90
12223;DHT22;6174;49.058;8.524;2023-01-19T17:03:37;2.50;99.90
12223;DHT22;6174;49.058;8.524;2023-01-19T17:06:05;2.50;99.90
12223;DHT22;6174;49.058;8.524;2023-01-19T17:08:32;2.50;99.90
12223;DHT22;6174;49.058;8.524;2023-01-19T17:10:59;2.50;99.90
12223;DHT22;6174;49.058;8.524;2023-01-19T17:13:27;2.40;99.90
12223;DHT22;6174;49.058;8.524;2023-01-19T17:15:58;2.40;99.90
12223;DHT22;6174;49.058;8.524;2023-01-19T17:18:26;2.40;99.90
12223;DHT22;6174;49.058;8.524;2023-01-19T17:20:53;2.30;99.90
12223;DHT22;6174;49.058;8.524;2023-01-19T17:23:20;2.30;99.90
12223;DHT22;6174;49.058;8.524;2023-01-19T17:25:51;2.30;99.90
12223;DHT22;6174;49.058;8.524;2023-01-19T17:28:18;2.30;99.90
12223;DHT22;6174;49.058;8.524;2023-01-19T17:30:48;2.30;99.90
12223;DHT22;6174;49.058;8.524;2023-01-19T17:33:16;2.30;99.90
12223;DHT22;6174;49.058;8.524;2023-01-19T17:35:45;2.30;99.90
12223;DHT22;6174;49.058;8.524;2023-01-19T17:38:12;2.20;99.90
12223;DHT22;6174;49.058;8.524;2023-01-19T17:40:39;2.20;99.90
12223;DHT22;6174;49.058;8.524;2023-01-19T17:43:06;2.20;99.90
12223;DHT22;6174;49.058;8.524;2023-01-19T17:45:33;2.20;99.90
12223;DHT22;6174;49.058;8.524;2023-01-19T17:48:01;2.30;99.90
12223;DHT22;6174;49.058;8.524;2023-01-19T17:50:27;2.30;99.90
12223;DHT22;6174;49.058;8.524;2023-01-19T17:52:55;2.40;99.90
12223;DHT22;6174;49.058;8.524;2023-01-19T17:55:22;2.40;99.90
12223;DHT22;6174;49.058;8.524;2023-01-19T17:57:49;2.30;99.90
12223;DHT22;6174;49.058;8.524;2023-01-19T18:00:17;2.30;99.90
12223;DHT22;6174;49.058;8.524;2023-01-19T18:02:43;2.30;99.90
12223;DHT22;6174;49.058;8.524;2023-01-19T18:05:10;2.30;99.90
12223;DHT22;6174;49.058;8.524;2023-01-19T18:07:38;2.30;99.90
12223;DHT22;6174;49.058;8.524;2023-01-19T18:10:08;2.40;99.90
12223;DHT22;6174;49.058;8.524;2023-01-19T18:12:35;2.40;99.90
12223;DHT22;6174;49.058;8.524;2023-01-19T18:15:03;2.40;99.90
12223;DHT22;6174;49.058;8.524;2023-01-19T18:17:30;2.40;99.90
12223;DHT22;6174;49.058;8.524;2023-01-19T18:19:57;2.40;99.90
12223;DHT22;6174;49.058;8.524;2023-01-19T18:22:24;2.30;99.90
12223;DHT22;6174;49.058;8.524;2023-01-19T18:24:50;2.40;99.90
12223;DHT22;6174;49.058;8.524;2023-01-19T18:27:18;2.30;99.90
12223;DHT22;6174;49.058;8.524;2023-01-19T18:29:46;2.40;99.90
12223;DHT22;6174;49.058;8.524;2023-01-19T18:32:13;2.40;99.90
12223;DHT22;6174;49.058;8.524;2023-01-19T18:34:40;2.40;99.90
12223;DHT22;6174;49.058;8.524;2023-01-19T18:37:07;2.40;99.90
12223;DHT22;6174;49.058;8.524;2023-01-19T18:39:37;2.50;99.90
12223;DHT22;6174;49.058;8.524;2023-01-19T18:42:03;2.50;99.90
12223;DHT22;6174;49.058;8.524;2023-01-19T18:44:31;2.50;99.90
12223;DHT22;6174;49.058;8.524;2023-01-19T18:46:58;2.40;99.90
12223;DHT22;6174;49.058;8.524;2023-01-19T18:49:25;2.40;99.90
12223;DHT22;6174;49.058;8.524;2023-01-19T18:51:52;2.50;99.90
12223;DHT22;6174;49.058;8.524;2023-01-19T18:54:18;2.50;99.90
12223;DHT22;6174;49.058;8.524;2023-01-19T18:56:45;2.40;99.90
12223;DHT22;6174;49.058;8.524;2023-01-19T18:59:14;2.40;99.90
12223;DHT22;6174;49.058;8.524;2023-01-19T19:01:42;2.40;99.90
12223;DHT22;6174;49.058;8.524;2023-01-19T19:04:09;2.40;99.90
12223;DHT22;6174;49.058;8.524;2023-01-19T19:06:36;2.40;99.90
12223;DHT22;6174;49.058;8.524;2023-01-19T19:09:02;2.40;99.90
12223;DHT22;6174;49.058;8.524;2023-01-19T19:11:29;2.40;99.90
12223;DHT22;6174;49.058;8.524;2023-01-19T19:13:58;2.40;99.90
12223;DHT22;6174;49.058;8.524;2023-01-19T19:16:25;2.40;99.90
12223;DHT22;6174;49.058;8.524;2023-01-19T19:18:53;2.40;99.90
12223;DHT22;6174;49.058;8.524;2023-01-19T19:21:22;2.40;99.90
12223;DHT22;6174;49.058;8.524;2023-01-19T19:23:50;2.30;99.90
12223;DHT22;6174;49.058;8.524;2023-01-19T19:26:17;2.30;99.90
12223;DHT22;6174;49.058;8.524;2023-01-19T19:28:44;2.40;99.90
12223;DHT22;6174;49.058;8.524;2023-01-19T19:31:13;2.30;99.90
12223;DHT22;6174;49.058;8.524;2023-01-19T19:33:41;2.30;99.90
12223;DHT22;6174;49.058;8.524;2023-01-19T19:36:09;2.30;99.90
12223;DHT22;6174;49.058;8.524;2023-01-19T19:38:37;2.20;99.90
12223;DHT22;6174;49.058;8.524;2023-01-19T19:41:06;2.20;99.90
12223;DHT22;6174;49.058;8.524;2023-01-19T19:43:34;2.20;99.90
12223;DHT22;6174;49.058;8.524;2023-01-19T19:46:03;2.10;99.90
12223;DHT22;6174;49.058;8.524;2023-01-19T19:48:30;2.20;99.90
12223;DHT22;6174;49.058;8.524;2023-01-19T19:51:04;2.10;99.90
12223;DHT22;6174;49.058;8.524;2023-01-19T19:53:33;2.10;99.90
12223;DHT22;6174;49.058;8.524;2023-01-19T19:56:03;2.10;99.90
12223;DHT22;6174;49.058;8.524;2023-01-19T19:58:30;2.00;99.90
12223;DHT22;6174;49.058;8.524;2023-01-19T20:00:57;2.00;99.90
12223;DHT22;6174;49.058;8.524;2023-01-19T20:03:27;2.00;99.90
12223;DHT22;6174;49.058;8.524;2023-01-19T20:05:54;2.00;99.90
12223;DHT22;6174;49.058;8.524;2023-01-19T20:08:21;2.00;99.90
12223;DHT22;6174;49.058;8.524;2023-01-19T20:10:49;2.00;99.90
12223;DHT22;6174;49.058;8.524;2023-01-19T20:13:16;2.00;99.90
12223;DHT22;6174;49.058;8.524;2023-01-19T20:15:43;2.00;99.90
12223;DHT22;6174;49.058;8.524;2023-01-19T20:18:11;2.00;99.90
12223;DHT22;6174;49.058;8.524;2023-01-19T20:20:38;2.00;99.90
12223;DHT22;6174;49.058;8.524;2023-01-19T20:23:04;2.10;99.90
12223;DHT22;6174;49.058;8.524;2023-01-19T20:25:31;2.10;99.90
12223;DHT22;6174;49.058;8.524;2023-01-19T20:27:59;2.10;99.90
12223;DHT22;6174;49.058;8.524;2023-01-19T20:30:26;2.10;99.90
12223;DHT22;6174;49.058;8.524;2023-01-19T20:32:52;2.10;99.90
12223;DHT22;6174;49.058;8.524;2023-01-19T20:35:19;2.10;99.90
12223;DHT22;6174;49.058;8.524;2023-01-19T20:37:46;2.10;99.90
12223;DHT22;6174;49.058;8.524;2023-01-19T20:40:13;2.00;99.90
12223;DHT22;6174;49.058;8.524;2023-01-19T20:42:40;2.00;99.90
12223;DHT22;6174;49.058;8.524;2023-01-19T20:45:09;2.10;99.90
12223;DHT22;6174;49.058;8.524;2023-01-19T20:47:38;2.10;99.90
12223;DHT22;6174;49.058;8.524;2023-01-19T20:50:06;2.10;99.90
12223;DHT22;6174;49.058;8.524;2023-01-19T20:52:33;2.10;99.90
12223;DHT22;6174;49.058;8.524;2023-01-19T20:55:01;2.10;99.90
12223;DHT22;6174;49.058;8.524;2023-01-19T20:57:28;2.10;99.90
12223;DHT22;6174;49.058;8.524;2023-01-19T20:59:54;2.20;99.90
12223;DHT22;6174;49.058;8.524;2023-01-19T21:02:23;2.10;99.90
12223;DHT22;6174;49.058;8.524;2023-01-19T21:04:50;2.10;99.90
12223;DHT22;6174;49.058;8.524;2023-01-19T21:07:19;2.10;99.90
12223;DHT22;6174;49.058;8.524;2023-01-19T21:09:45;2.10;99.90
12223;DHT22;6174;49.058;8.524;2023-01-19T21:12:12;2.10;99.90
12223;DHT22;6174;49.058;8.524;2023-01-19T21:14:40;2.10;99.90
12223;DHT22;6174;49.058;8.524;2023-01-19T21:17:08;2.10;99.90
12223;DHT22;6174;49.058;8.524;2023-01-19T21:19:36;2.20;99.90
12223;DHT22;6174;49.058;8.524;2023-01-19T21:22:03;2.10;99.90
12223;DHT22;6174;49.058;8.524;2023-01-19T21:24:29;2.10;99.90
12223;DHT22;6174;49.058;8.524;2023-01-19T21:26:56;2.10;99.90